Colwyn Bay, United Kingdom
Current Conditions -  °F | °C
As of 8:50 PM on Friday 28 Nov 2014 (Local Time) from EGNR Reporting Station
Broken Clouds Broken Clouds  
Wind Chill: 11°   Ceiling: 1500
Heat Index: 11°   Visibility: 6mi
Dew Point:   Wind: 3mph
Humidity: 88%   Direction: NA
Pressure: 29.77"   Gusts: NA
Location:  53.29°N, 3.72°W
Report Text: EGNR 282050Z VRB03KT 9999 BKN015 11/09 Q1008
Loading
Personal Weather Stations






























Interactive Weather Map New forecast layout! Learn more

10-Day Weather Forecast

Advertisements
Track Severe Weather on mobile